Аэропорт: Основа. Харьков

ICAO: UKHH

METAR:
2019-07-23 18:30:00
UKHH 231830Z 14002MPS 110V170 9999 FEW///CB 19/17 Q1011 R07/0///81 NOSIG
METAR:
2019-07-23 17:11:00
TAF UKHH 231711Z 2318/2418 33002MPS 2100 -SHRA BR BKN007 BKN030CB TX26/2412Z TN17/2402Z TEMPO 2318/2324 1100 SHRA BKN004 BKN020CB PROB40 TEMPO 2318/2324 30009G16MPS -TSRA SQ TEMPO 2400/2406 0500 FG BKN003 BKN020CB TEMPO 2406/2418 30009G16MPS 1100 TSRAGR SQ